Time;durP1;ratioP1;P1;durP2;ratioP2;P2;SDS_P1;SDS_P2;PMS_P1;PMS_P2;Temp;Humidity;BMP_temperature;BMP_pressure;BME280_temperature;BME280_humidity;BME280_pressure;Samples;Min_cycle;Max_cycle;Signal;HPM_P1;HPM_P2
2021/01/29 00:02:09;;;;;;;0.55;0.50;;;7.50;99.90;;;;;;4995690;28;20080;-72
2021/01/29 00:04:34;;;;;;;0.95;0.32;;;7.50;99.90;;;;;;4993123;28;20079;-72
2021/01/29 00:07:00;;;;;;;0.35;0.25;;;7.50;99.90;;;;;;4991178;28;20576;-72
2021/01/29 00:09:26;;;;;;;0.43;0.22;;;7.50;99.90;;;;;;5005709;28;20138;-71
2021/01/29 00:11:51;;;;;;;2.03;0.47;;;7.50;99.90;;;;;;4994178;28;20098;-72
2021/01/29 00:14:17;;;;;;;0.35;0.35;;;7.60;99.90;;;;;;4989909;28;20169;-72
2021/01/29 00:16:43;;;;;;;0.52;0.47;;;7.50;99.90;;;;;;4997967;28;20078;-71
2021/01/29 00:19:08;;;;;;;1.15;0.40;;;7.40;99.90;;;;;;5009490;28;20090;-72
2021/01/29 00:21:34;;;;;;;1.70;0.30;;;7.40;99.90;;;;;;4995944;28;20103;-71
2021/01/29 00:23:59;;;;;;;0.90;0.47;;;7.50;99.90;;;;;;4990902;28;20083;-71
2021/01/29 00:26:25;;;;;;;2.10;0.43;;;7.50;99.90;;;;;;4997897;28;20102;-72
2021/01/29 00:28:51;;;;;;;1.55;0.50;;;7.40;99.90;;;;;;4996904;28;20455;-72
2021/01/29 00:31:16;;;;;;;0.68;0.57;;;7.50;99.90;;;;;;4989129;28;20439;-72
2021/01/29 00:36:10;;;;;;;0.30;0.20;;;7.50;99.90;;;;;;4999710;28;20141;-76
2021/01/29 00:38:35;;;;;;;0.70;0.50;;;7.50;99.90;;;;;;5005940;28;20079;-77
2021/01/29 00:41:01;;;;;;;0.47;0.30;;;7.50;99.90;;;;;;5007282;28;20550;-75
2021/01/29 00:43:26;;;;;;;0.60;0.30;;;7.40;99.90;;;;;;4993877;28;20788;-76
2021/01/29 00:45:52;;;;;;;0.90;0.40;;;7.50;99.90;;;;;;4996656;28;20094;-76
2021/01/29 00:48:18;;;;;;;1.35;0.43;;;7.50;99.90;;;;;;5011372;28;20526;-76
2021/01/29 00:50:43;;;;;;;0.68;0.55;;;7.40;99.90;;;;;;5009617;28;20079;-76
2021/01/29 00:53:09;;;;;;;0.57;0.45;;;7.40;99.90;;;;;;4991838;28;20079;-76
2021/01/29 00:55:36;;;;;;;0.55;0.30;;;7.40;99.90;;;;;;4994513;28;20095;-76
2021/01/29 00:58:01;;;;;;;0.68;0.40;;;7.50;99.90;;;;;;5000447;28;20086;-77
2021/01/29 01:00:27;;;;;;;0.50;0.40;;;7.50;99.90;;;;;;4994230;28;20078;-76
2021/01/29 01:02:52;;;;;;;0.80;0.68;;;7.40;99.90;;;;;;5000119;28;20547;-76
2021/01/29 01:05:21;;;;;;;1.90;0.30;;;7.40;99.90;;;;;;4997431;28;20156;-76
2021/01/29 01:07:47;;;;;;;0.73;0.35;;;7.40;99.90;;;;;;4991280;28;20095;-76
2021/01/29 01:10:14;;;;;;;0.20;0.20;;;7.30;99.90;;;;;;4993622;28;20105;-75
2021/01/29 01:12:40;;;;;;;0.40;0.28;;;7.40;99.90;;;;;;4990728;28;20117;-75
2021/01/29 01:15:11;;;;;;;0.40;0.30;;;7.30;99.90;;;;;;4990700;28;20133;-76
2021/01/29 01:17:37;;;;;;;0.30;0.28;;;7.30;99.90;;;;;;5000790;28;20128;-76
2021/01/29 01:20:05;;;;;;;0.10;0.10;;;7.30;99.90;;;;;;5002892;28;20078;-77
2021/01/29 01:22:31;;;;;;;1.75;0.40;;;7.30;99.90;;;;;;4991513;28;20085;-75
2021/01/29 01:24:56;;;;;;;0.50;0.20;;;7.40;99.90;;;;;;5004769;28;20473;-75
2021/01/29 01:27:22;;;;;;;0.30;0.20;;;7.30;99.90;;;;;;4990197;28;20470;-75
2021/01/29 01:29:47;;;;;;;0.40;0.28;;;7.30;99.90;;;;;;5002081;28;20483;-75
2021/01/29 01:32:13;;;;;;;1.35;0.77;;;7.20;99.90;;;;;;5005568;28;20067;-75
2021/01/29 01:34:38;;;;;;;2.00;0.40;;;7.20;99.90;;;;;;4993463;28;20102;-76
2021/01/29 01:37:04;;;;;;;0.75;0.20;;;7.20;99.90;;;;;;4992984;28;20498;-75
2021/01/29 01:39:30;;;;;;;0.20;0.20;;;7.20;99.90;;;;;;4990336;28;20087;-75
2021/01/29 01:41:56;;;;;;;0.68;0.47;;;7.30;99.90;;;;;;4991366;28;20113;-76
2021/01/29 01:44:30;;;;;;;1.25;0.20;;;7.30;99.90;;;;;;4993311;28;20368;-75
2021/01/29 01:46:57;;;;;;;0.50;0.30;;;7.30;99.90;;;;;;5005086;28;20121;-76
2021/01/29 01:49:26;;;;;;;0.38;0.30;;;7.20;99.90;;;;;;4991401;28;20077;-76
2021/01/29 01:52:06;;;;;;;0.50;0.20;;;7.20;99.90;;;;;;4989897;28;20081;-76
2021/01/29 01:54:43;;;;;;;2.50;0.30;;;7.30;99.90;;;;;;5014944;28;20101;-74
2021/01/29 01:57:13;;;;;;;0.70;0.30;;;7.20;99.90;;;;;;5007682;28;20086;-76
2021/01/29 01:59:50;;;;;;;1.58;0.75;;;7.20;99.90;;;;;;5003608;28;20079;-76
2021/01/29 02:02:20;;;;;;;0.30;0.28;;;7.20;99.90;;;;;;4989760;28;20086;-76
2021/01/29 02:04:48;;;;;;;0.40;0.30;;;7.20;99.90;;;;;;4990887;28;20197;-75
2021/01/29 02:07:27;;;;;;;0.45;0.40;;;7.20;99.90;;;;;;4997767;28;20587;-75
2021/01/29 02:09:55;;;;;;;0.40;0.30;;;7.20;99.90;;;;;;5005190;28;20508;-75
2021/01/29 02:12:21;;;;;;;0.30;0.20;;;7.30;99.90;;;;;;5002402;28;20086;-76
2021/01/29 02:14:47;;;;;;;0.40;0.20;;;7.30;99.90;;;;;;4990401;28;20796;-76
2021/01/29 02:17:46;;;;;;;0.75;0.30;;;7.20;99.90;;;;;;5004547;28;20165;-75
2021/01/29 02:20:27;;;;;;;0.68;0.25;;;7.30;99.90;;;;;;4990228;28;20079;-76
2021/01/29 02:23:23;;;;;;;0.40;0.20;;;7.30;99.90;;;;;;4994972;28;20074;-75
2021/01/29 02:26:16;;;;;;;0.30;0.20;;;7.30;99.90;;;;;;4999768;28;20098;-75
2021/01/29 02:28:54;;;;;;;0.52;0.40;;;7.30;99.90;;;;;;5016672;28;20089;-75
2021/01/29 02:31:45;;;;;;;0.50;0.40;;;7.30;99.90;;;;;;5003096;28;20105;-77
2021/01/29 02:34:38;;;;;;;0.52;0.40;;;7.30;99.90;;;;;;4990955;28;20102;-75
2021/01/29 02:37:39;;;;;;;0.73;0.20;;;7.30;99.90;;;;;;4992348;28;20531;-76
2021/01/29 02:40:29;;;;;;;0.60;0.40;;;7.40;99.90;;;;;;4991538;28;20125;-75
2021/01/29 02:43:24;;;;;;;0.20;0.20;;;7.30;99.90;;;;;;4994435;28;20097;-75
2021/01/29 02:45:58;;;;;;;0.10;0.10;;;7.30;99.90;;;;;;5002052;28;20113;-76
2021/01/29 02:48:32;;;;;;;0.55;0.40;;;7.30;99.90;;;;;;4989744;28;20083;-75
2021/01/29 02:51:26;;;;;;;0.38;0.28;;;7.30;99.90;;;;;;4994051;28;20081;-76
2021/01/29 02:54:02;;;;;;;0.32;0.13;;;7.30;99.90;;;;;;4999060;28;20542;-77
2021/01/29 02:56:50;;;;;;;0.20;0.20;;;7.40;99.90;;;;;;4998619;28;20078;-76
2021/01/29 02:59:44;;;;;;;0.20;0.10;;;7.30;99.90;;;;;;4991054;28;20601;-76
2021/01/29 03:02:23;;;;;;;0.70;0.50;;;7.30;99.90;;;;;;4995763;28;20082;-75
2021/01/29 03:04:59;;;;;;;0.60;0.40;;;7.40;99.90;;;;;;4995261;28;20153;-75
2021/01/29 03:07:35;;;;;;;0.22;0.20;;;7.30;99.90;;;;;;4989123;28;20576;-76
2021/01/29 03:10:08;;;;;;;0.60;0.28;;;7.20;99.90;;;;;;4990892;28;20121;-75
2021/01/29 03:12:44;;;;;;;1.30;0.20;;;7.20;99.90;;;;;;5005134;28;20133;-75
2021/01/29 03:15:25;;;;;;;0.68;0.30;;;7.20;99.90;;;;;;4993181;28;20090;-75
2021/01/29 03:17:55;;;;;;;0.13;0.13;;;7.20;99.90;;;;;;4990309;28;20761;-76
2021/01/29 03:20:33;;;;;;;0.30;0.10;;;7.10;99.90;;;;;;4992454;28;20085;-75
2021/01/29 03:23:22;;;;;;;0.28;0.10;;;7.20;99.90;;;;;;5000581;28;20102;-75
2021/01/29 03:25:58;;;;;;;1.02;0.20;;;7.20;99.90;;;;;;4986196;28;20189;-76
2021/01/29 03:28:29;;;;;;;0.20;0.10;;;7.30;99.90;;;;;;4994108;28;20542;-76
2021/01/29 03:30:57;;;;;;;0.20;0.10;;;7.20;99.90;;;;;;4994918;28;20140;-75
2021/01/29 03:33:29;;;;;;;0.10;0.10;;;7.20;99.90;;;;;;5006118;28;20089;-75
2021/01/29 03:36:01;;;;;;;0.30;0.10;;;7.20;99.90;;;;;;4995825;28;20134;-75
2021/01/29 03:38:36;;;;;;;0.20;0.17;;;7.20;99.90;;;;;;4988581;28;20082;-76
2021/01/29 03:41:30;;;;;;;1.13;0.30;;;7.10;99.90;;;;;;5005613;28;20204;-75
2021/01/29 03:44:08;;;;;;;0.28;0.20;;;7.00;99.90;;;;;;4967103;28;20785;-76
2021/01/29 03:46:41;;;;;;;1.85;0.10;;;7.10;99.90;;;;;;5004692;28;20760;-75
2021/01/29 03:49:19;;;;;;;1.65;0.25;;;7.00;99.90;;;;;;5005528;28;20816;-75
2021/01/29 03:52:09;;;;;;;0.32;0.15;;;7.10;99.90;;;;;;4995462;28;20086;-75
2021/01/29 03:54:57;;;;;;;0.30;0.10;;;7.00;99.90;;;;;;4986940;28;20534;-75
2021/01/29 03:57:41;;;;;;;0.17;0.00;;;7.00;99.90;;;;;;5000872;28;20566;-74
2021/01/29 04:00:23;;;;;;;0.28;0.10;;;7.00;99.90;;;;;;4995746;28;20082;-75
2021/01/29 04:03:18;;;;;;;0.10;0.10;;;7.00;99.90;;;;;;4989111;28;20091;-76
2021/01/29 04:06:08;;;;;;;0.15;0.10;;;7.00;99.90;;;;;;5000083;28;20102;-76
2021/01/29 04:08:53;;;;;;;0.20;0.10;;;7.00;99.90;;;;;;4998643;28;20086;-75
2021/01/29 04:11:25;;;;;;;0.52;0.13;;;7.00;99.90;;;;;;4986902;28;20106;-75
2021/01/29 04:14:00;;;;;;;0.10;0.10;;;7.10;99.90;;;;;;4998077;28;20458;-75
2021/01/29 04:16:42;;;;;;;0.45;0.25;;;7.10;99.90;;;;;;5003975;28;20082;-76
2021/01/29 04:19:22;;;;;;;0.50;0.10;;;7.10;99.90;;;;;;5010287;28;20529;-76
2021/01/29 04:22:04;;;;;;;0.20;0.20;;;7.10;99.90;;;;;;4998315;28;20074;-76
2021/01/29 04:24:38;;;;;;;0.35;0.10;;;7.10;99.90;;;;;;5006086;28;20133;-76
2021/01/29 04:27:10;;;;;;;0.20;0.20;;;7.10;99.90;;;;;;5002133;28;20087;-76
2021/01/29 04:29:46;;;;;;;0.20;0.10;;;7.10;99.90;;;;;;4999635;28;20087;-75
2021/01/29 04:32:15;;;;;;;0.40;0.20;;;7.10;99.90;;;;;;4991510;28;20071;-75
2021/01/29 04:34:46;;;;;;;0.20;0.10;;;7.10;99.90;;;;;;5005572;28;20188;-76
2021/01/29 04:37:31;;;;;;;0.88;0.20;;;7.10;99.90;;;;;;5003099;28;20079;-76
2021/01/29 04:40:09;;;;;;;0.40;0.10;;;7.10;99.90;;;;;;5004285;28;20109;-75
2021/01/29 04:42:55;;;;;;;0.20;0.10;;;7.10;99.90;;;;;;5000275;28;20573;-75
2021/01/29 04:45:42;;;;;;;1.55;0.40;;;7.10;99.90;;;;;;5008239;28;20113;-75
2021/01/29 04:48:36;;;;;;;0.52;0.13;;;7.20;99.90;;;;;;4994265;28;20102;-75
2021/01/29 04:51:19;;;;;;;0.15;0.10;;;7.20;99.90;;;;;;4995671;28;20097;-75
2021/01/29 04:54:06;;;;;;;0.65;0.32;;;7.20;99.90;;;;;;4992084;28;20114;-75
2021/01/29 04:56:59;;;;;;;0.20;0.10;;;7.20;99.90;;;;;;4992199;28;20172;-75
2021/01/29 04:59:52;;;;;;;0.35;0.10;;;7.20;99.90;;;;;;4992224;28;20087;-76
2021/01/29 05:02:43;;;;;;;0.47;0.17;;;7.20;99.90;;;;;;4995990;28;20086;-75
2021/01/29 05:05:39;;;;;;;0.73;0.70;;;7.20;99.90;;;;;;4999412;28;20125;-75
2021/01/29 05:08:52;;;;;;;1.15;0.63;;;7.20;99.90;;;;;;5008932;28;20185;-75
2021/01/29 05:11:45;;;;;;;0.60;0.43;;;7.20;99.90;;;;;;4968813;28;20072;-75
2021/01/29 05:14:48;;;;;;;1.42;0.32;;;7.20;99.90;;;;;;4968367;28;20095;-75
2021/01/29 05:17:32;;;;;;;0.73;0.25;;;7.20;99.90;;;;;;4987450;28;20086;-75
2021/01/29 05:20:24;;;;;;;0.40;0.20;;;7.20;99.90;;;;;;4999703;28;20075;-75
2021/01/29 05:22:59;;;;;;;1.60;0.63;;;7.20;99.90;;;;;;4993537;28;20071;-76
2021/01/29 05:25:46;;;;;;;0.50;0.20;;;7.20;99.90;;;;;;5000844;28;20578;-76
2021/01/29 05:28:24;;;;;;;1.17;0.20;;;7.20;99.90;;;;;;5000805;28;20113;-76
2021/01/29 05:31:30;;;;;;;0.95;0.50;;;7.10;99.90;;;;;;5004691;28;20106;-76
2021/01/29 05:34:21;;;;;;;2.83;1.10;;;7.10;99.90;;;;;;4997233;28;20075;-76
2021/01/29 05:37:06;;;;;;;0.50;0.20;;;7.10;99.90;;;;;;5004534;28;20079;-76
2021/01/29 05:39:50;;;;;;;1.00;0.35;;;7.10;99.90;;;;;;5001904;28;20089;-76
2021/01/29 05:42:40;;;;;;;0.40;0.20;;;7.10;99.90;;;;;;5005457;28;20181;-77
2021/01/29 05:45:20;;;;;;;1.55;0.40;;;7.10;99.90;;;;;;4991259;28;20194;-76
2021/01/29 05:48:00;;;;;;;0.80;0.45;;;7.10;99.90;;;;;;4998923;28;20121;-76
2021/01/29 05:50:51;;;;;;;0.57;0.43;;;7.10;99.90;;;;;;5001602;28;20082;-75
2021/01/29 05:53:51;;;;;;;0.40;0.30;;;7.10;99.90;;;;;;5007563;28;20530;-77
2021/01/29 05:56:45;;;;;;;0.85;0.30;;;7.10;99.90;;;;;;5005114;28;20074;-75
2021/01/29 05:59:19;;;;;;;1.17;0.40;;;7.00;99.90;;;;;;5000645;28;20142;-76
2021/01/29 06:01:51;;;;;;;;;;;7.00;99.90;;;;;;5008343;28;20080;-77
2021/01/29 06:04:35;;;;;;;0.93;0.30;;;6.90;99.90;;;;;;5005430;28;19978;-76
2021/01/29 06:07:35;;;;;;;1.50;0.65;;;7.00;99.90;;;;;;5016433;28;20539;-76
2021/01/29 06:10:10;;;;;;;1.42;0.30;;;6.90;99.90;;;;;;4999252;28;20086;-76
2021/01/29 06:12:53;;;;;;;0.68;0.35;;;6.90;99.90;;;;;;4997055;28;20089;-75
2021/01/29 06:15:38;;;;;;;1.48;0.50;;;6.90;99.90;;;;;;4994754;28;20133;-75
2021/01/29 06:18:18;;;;;;;3.47;0.63;;;6.90;99.90;;;;;;5016532;28;20080;-76
2021/01/29 06:21:01;;;;;;;0.70;0.32;;;6.90;99.90;;;;;;5006687;28;20080;-76
2021/01/29 06:23:59;;;;;;;1.00;0.30;;;6.80;99.90;;;;;;5004810;28;20081;-75
2021/01/29 06:26:44;;;;;;;0.70;0.50;;;6.80;99.90;;;;;;4999454;28;20577;-74
2021/01/29 06:29:22;;;;;;;;;;;6.80;99.90;;;;;;5018064;28;20585;-74
2021/01/29 06:32:15;;;;;;;2.67;1.30;;;6.80;99.90;;;;;;4991814;28;19966;-74
2021/01/29 06:35:04;;;;;;;0.98;0.50;;;6.80;99.90;;;;;;4991554;28;20094;-75
2021/01/29 06:37:58;;;;;;;0.70;0.57;;;6.80;99.90;;;;;;4988232;28;20082;-76
2021/01/29 06:40:50;;;;;;;1.73;0.82;;;6.80;99.90;;;;;;4988268;28;20101;-75
2021/01/29 06:43:37;;;;;;;0.45;0.30;;;6.70;99.90;;;;;;4987777;28;20102;-76
2021/01/29 06:46:09;;;;;;;3.05;1.02;;;6.70;99.90;;;;;;4992543;28;20098;-75
2021/01/29 06:49:02;;;;;;;0.90;0.63;;;6.70;99.90;;;;;;4996955;28;20090;-76
2021/01/29 06:51:49;;;;;;;4.93;1.90;;;6.70;99.90;;;;;;5006881;28;20168;-76
2021/01/29 06:55:01;;;;;;;2.78;0.85;;;6.70;99.90;;;;;;4996956;28;20156;-76
2021/01/29 06:57:45;;;;;;;0.40;0.30;;;6.70;99.90;;;;;;5006537;28;20070;-75
2021/01/29 07:00:55;;;;;;;0.70;0.55;;;6.70;99.90;;;;;;5000552;28;20140;-76
2021/01/29 07:03:35;;;;;;;0.98;0.50;;;6.70;99.90;;;;;;4978647;28;20091;-75
2021/01/29 07:06:19;;;;;;;0.32;0.30;;;6.60;99.90;;;;;;5002389;28;20098;-75
2021/01/29 07:09:13;;;;;;;1.92;1.00;;;6.70;99.90;;;;;;4995537;28;20727;-76
2021/01/29 07:12:04;;;;;;;4.07;1.70;;;6.60;99.90;;;;;;4992936;28;20078;-76
2021/01/29 07:14:41;;;;;;;1.30;0.70;;;6.60;99.90;;;;;;5005094;28;20109;-76
2021/01/29 07:17:13;;;;;;;2.15;0.73;;;6.60;99.90;;;;;;5006881;28;20078;-76
2021/01/29 07:19:58;;;;;;;5.13;1.50;;;6.60;99.90;;;;;;5007084;28;20083;-78
2021/01/29 07:22:32;;;;;;;9.32;2.53;;;6.50;99.90;;;;;;5000170;28;20165;-75
2021/01/29 07:25:20;;;;;;;6.25;1.77;;;6.50;99.90;;;;;;5000814;28;20121;-77
2021/01/29 07:28:04;;;;;;;6.53;2.22;;;6.50;99.90;;;;;;5000593;28;20094;-76
2021/01/29 07:30:39;;;;;;;0.93;0.50;;;6.50;99.90;;;;;;4995311;28;20078;-75
2021/01/29 07:33:26;;;;;;;5.20;1.50;;;6.50;99.90;;;;;;5001010;28;20576;-76
2021/01/29 07:36:21;;;;;;;5.82;1.35;;;6.50;99.90;;;;;;4990368;28;20161;-75
2021/01/29 07:39:05;;;;;;;;;;;6.50;99.90;;;;;;5004569;28;20502;-75
2021/01/29 07:42:08;;;;;;;0.60;0.20;;;6.60;99.90;;;;;;4991508;28;20341;-76
2021/01/29 07:45:01;;;;;;;0.32;0.28;;;6.60;99.90;;;;;;5000964;28;20125;-75
2021/01/29 07:47:36;;;;;;;0.68;0.30;;;6.60;99.90;;;;;;5000431;28;20224;-75
2021/01/29 07:50:31;;;;;;;0.60;0.22;;;6.70;99.90;;;;;;4997920;28;20488;-74
2021/01/29 07:53:25;;;;;;;0.30;0.20;;;6.80;99.90;;;;;;4995237;28;20159;-74
2021/01/29 07:56:28;;;;;;;0.30;0.20;;;6.90;99.90;;;;;;5002975;28;20129;-74
2021/01/29 07:59:04;;;;;;;0.40;0.20;;;6.80;99.90;;;;;;5002371;28;20490;-75
2021/01/29 08:01:39;;;;;;;1.33;0.57;;;6.80;99.90;;;;;;5006068;28;20080;-75
2021/01/29 08:04:11;;;;;;;1.05;0.40;;;6.90;99.90;;;;;;4991133;28;20102;-76
2021/01/29 08:07:13;;;;;;;0.90;0.40;;;6.90;99.90;;;;;;5001960;28;20097;-76
2021/01/29 08:09:43;;;;;;;3.00;0.88;;;7.10;99.90;;;;;;4996637;28;20097;-75
2021/01/29 08:12:17;;;;;;;1.38;0.25;;;7.10;99.90;;;;;;5003391;28;20475;-76
2021/01/29 08:14:46;;;;;;;;;;;7.10;99.90;;;;;;5023493;28;20146;-76
2021/01/29 08:17:31;;;;;;;0.47;0.30;;;7.10;99.90;;;;;;5011522;28;20723;-77
2021/01/29 08:20:26;;;;;;;0.95;0.38;;;7.20;99.90;;;;;;4988140;28;20087;-77
2021/01/29 08:23:10;;;;;;;0.60;0.32;;;7.30;99.90;;;;;;4991566;28;20166;-76
2021/01/29 08:25:56;;;;;;;2.65;0.50;;;7.50;99.90;;;;;;5000136;28;20594;-75
2021/01/29 08:28:33;;;;;;;1.50;0.50;;;7.40;99.90;;;;;;5001619;28;20457;-76
2021/01/29 08:31:25;;;;;;;0.95;0.70;;;7.40;99.90;;;;;;5005380;28;20078;-76
2021/01/29 08:34:00;;;;;;;0.60;0.32;;;7.40;99.90;;;;;;5002060;28;20098;-76
2021/01/29 08:36:48;;;;;;;1.00;0.70;;;7.50;99.90;;;;;;5030089;28;20119;-76
2021/01/29 08:39:23;;;;;;;1.52;0.75;;;7.50;99.90;;;;;;5029053;28;20088;-77
2021/01/29 08:42:15;;;;;;;2.67;0.82;;;7.60;99.90;;;;;;5002801;28;20070;-74
2021/01/29 08:44:54;;;;;;;0.45;0.30;;;7.60;99.90;;;;;;4998842;28;20082;-76
2021/01/29 08:47:43;;;;;;;0.57;0.10;;;7.70;99.90;;;;;;5005436;28;20137;-77
2021/01/29 08:50:23;;;;;;;2.58;0.45;;;8.00;99.90;;;;;;5014771;28;20089;-76
2021/01/29 08:53:25;;;;;;;1.60;0.32;;;8.10;99.90;;;;;;4999777;28;20074;-76
2021/01/29 08:56:14;;;;;;;0.70;0.20;;;8.10;99.90;;;;;;4950612;28;20153;-77
2021/01/29 08:58:52;;;;;;;1.00;0.60;;;8.10;99.90;;;;;;4992514;28;20181;-76
2021/01/29 09:01:17;;;;;;;1.30;0.20;;;8.30;99.90;;;;;;4995095;28;20229;-75
2021/01/29 09:03:51;;;;;;;1.95;0.60;;;8.20;99.90;;;;;;4995628;28;20546;-77
2021/01/29 09:06:20;;;;;;;3.35;1.20;;;8.20;99.90;;;;;;4996637;28;20087;-77
2021/01/29 09:08:56;;;;;;;0.40;0.20;;;8.30;99.90;;;;;;5009572;28;20086;-77
2021/01/29 09:11:47;;;;;;;1.40;0.57;;;8.30;99.90;;;;;;4997082;28;20089;-76
2021/01/29 09:14:39;;;;;;;1.75;0.80;;;8.40;99.90;;;;;;5000390;28;20276;-75
2021/01/29 09:17:16;;;;;;;9.00;1.45;;;8.30;99.90;;;;;;5009533;28;20496;-77
2021/01/29 09:19:50;;;;;;;1.45;0.55;;;8.40;99.90;;;;;;5005942;28;20526;-77
2021/01/29 09:22:38;;;;;;;1.63;0.43;;;8.40;99.90;;;;;;4999345;28;20082;-76
2021/01/29 09:25:11;;;;;;;2.00;0.60;;;8.30;99.90;;;;;;5000315;28;20567;-76
2021/01/29 09:27:41;;;;;;;1.60;0.30;;;8.40;99.90;;;;;;4991358;28;20148;-76
2021/01/29 09:30:20;;;;;;;0.40;0.20;;;8.30;99.90;;;;;;4996011;28;20142;-75
2021/01/29 09:32:49;;;;;;;1.10;0.30;;;8.30;99.90;;;;;;5001332;28;20079;-78
2021/01/29 09:35:38;;;;;;;0.40;0.20;;;8.30;99.90;;;;;;5004647;28;20113;-78
2021/01/29 09:38:09;;;;;;;1.30;0.50;;;8.30;99.90;;;;;;4989613;28;20082;-77
2021/01/29 09:40:45;;;;;;;1.02;0.45;;;8.30;99.90;;;;;;5001256;28;20539;-77
2021/01/29 09:43:26;;;;;;;2.03;0.50;;;8.30;99.90;;;;;;5002771;28;20086;-77
2021/01/29 09:45:57;;;;;;;1.58;0.57;;;8.20;99.90;;;;;;5007328;28;20727;-77
2021/01/29 09:48:25;;;;;;;1.25;0.40;;;8.30;99.90;;;;;;5004544;28;20105;-76
2021/01/29 09:51:23;;;;;;;1.60;0.57;;;8.30;99.90;;;;;;5004284;28;20079;-76
2021/01/29 09:54:18;;;;;;;1.15;0.68;;;8.30;99.90;;;;;;4989007;28;20181;-76
2021/01/29 09:56:50;;;;;;;0.50;0.40;;;8.20;99.90;;;;;;5005301;28;20097;-76
2021/01/29 09:59:35;;;;;;;0.80;0.30;;;8.30;99.90;;;;;;5015553;28;20090;-76
2021/01/29 10:02:10;;;;;;;0.40;0.30;;;8.30;99.90;;;;;;5002227;28;20079;-75
2021/01/29 10:05:09;;;;;;;0.57;0.38;;;8.30;99.90;;;;;;5002505;28;20648;-75
2021/01/29 10:07:40;;;;;;;1.73;0.80;;;8.40;99.90;;;;;;4991693;28;20567;-77
2021/01/29 10:10:12;;;;;;;0.57;0.40;;;8.40;99.90;;;;;;4990757;28;20094;-77
2021/01/29 10:12:50;;;;;;;0.60;0.40;;;8.50;99.90;;;;;;5004410;28;20075;-76
2021/01/29 10:15:21;;;;;;;0.68;0.30;;;8.50;99.90;;;;;;5008231;28;20086;-77
2021/01/29 10:18:11;;;;;;;0.77;0.55;;;8.50;99.90;;;;;;4995964;28;20089;-77
2021/01/29 10:20:37;;;;;;;0.63;0.20;;;8.80;99.90;;;;;;5001247;28;20261;-75
2021/01/29 10:23:51;;;;;;;0.95;0.30;;;8.90;99.90;;;;;;5009070;28;20082;-75
2021/01/29 10:26:28;;;;;;;1.45;0.40;;;9.10;99.90;;;;;;4969888;28;20182;-77
2021/01/29 10:29:11;;;;;;;0.40;0.30;;;9.20;99.90;;;;;;5010985;28;20165;-75
2021/01/29 10:31:46;;;;;;;1.42;0.50;;;9.10;99.90;;;;;;4998748;28;20132;-78
2021/01/29 10:34:28;;;;;;;0.90;0.20;;;9.10;99.90;;;;;;5000974;28;20098;-77
2021/01/29 10:37:11;;;;;;;1.15;0.28;;;9.10;99.90;;;;;;4997033;28;20095;-76
2021/01/29 10:40:06;;;;;;;2.28;0.90;;;9.00;99.90;;;;;;5006770;28;20439;-76
2021/01/29 10:42:50;;;;;;;1.92;0.35;;;9.10;99.90;;;;;;4990546;28;20554;-77
2021/01/29 10:45:21;;;;;;;0.40;0.15;;;9.10;99.90;;;;;;5005355;28;20292;-77
2021/01/29 10:48:15;;;;;;;0.80;0.40;;;9.10;99.90;;;;;;4990289;28;20153;-75
2021/01/29 10:50:52;;;;;;;1.40;0.52;;;9.10;99.90;;;;;;4999077;28;20161;-75
2021/01/29 10:53:20;;;;;;;0.52;0.30;;;9.10;99.90;;;;;;5007173;28;20382;-77
2021/01/29 10:56:13;;;;;;;0.30;0.28;;;9.10;99.90;;;;;;5002674;28;20536;-77
2021/01/29 10:58:52;;;;;;;0.43;0.30;;;9.10;99.90;;;;;;5003541;28;20074;-76
2021/01/29 11:01:33;;;;;;;0.28;0.28;;;9.10;99.90;;;;;;4997510;28;20121;-77
2021/01/29 11:04:27;;;;;;;1.13;0.30;;;9.20;99.90;;;;;;4990620;28;20614;-77
2021/01/29 11:07:01;;;;;;;0.93;0.50;;;9.20;99.90;;;;;;5002873;28;20559;-76
2021/01/29 11:09:33;;;;;;;0.65;0.30;;;9.20;99.90;;;;;;4996981;28;20075;-75
2021/01/29 11:12:30;;;;;;;0.90;0.30;;;9.30;99.90;;;;;;5005302;28;20147;-77
2021/01/29 11:15:15;;;;;;;0.57;0.40;;;9.30;99.90;;;;;;4996686;28;20137;-76
2021/01/29 11:18:01;;;;;;;0.52;0.40;;;9.30;99.90;;;;;;5000089;28;20217;-76
2021/01/29 11:20:35;;;;;;;0.65;0.30;;;9.40;99.90;;;;;;5001848;28;20089;-75
2021/01/29 11:23:49;;;;;;;0.80;0.32;;;9.30;99.90;;;;;;4994542;28;20509;-76
2021/01/29 11:26:27;;;;;;;0.20;0.10;;;9.40;99.90;;;;;;5003638;28;20082;-75
2021/01/29 11:29:06;;;;;;;1.42;0.68;;;9.40;99.90;;;;;;5004327;28;20133;-77
2021/01/29 11:32:01;;;;;;;1.25;0.52;;;9.50;99.90;;;;;;4996823;28;20065;-76
2021/01/29 11:34:32;;;;;;;0.80;0.35;;;9.40;99.90;;;;;;5001029;28;20592;-76
2021/01/29 11:37:23;;;;;;;0.43;0.28;;;9.50;99.90;;;;;;5001552;28;20198;-77
2021/01/29 11:40:04;;;;;;;0.57;0.35;;;9.50;99.90;;;;;;4998535;28;20535;-78
2021/01/29 11:42:42;;;;;;;0.93;0.55;;;9.60;99.90;;;;;;5000217;28;20426;-77
2021/01/29 11:45:19;;;;;;;0.38;0.22;;;9.60;99.90;;;;;;4996741;28;20094;-76
2021/01/29 11:47:54;;;;;;;0.60;0.30;;;9.70;99.90;;;;;;4991687;28;20094;-78
2021/01/29 11:50:28;;;;;;;1.30;0.30;;;9.80;99.90;;;;;;5004592;28;20102;-76
2021/01/29 11:53:10;;;;;;;2.43;0.30;;;9.80;99.90;;;;;;4993470;28;20699;-78
2021/01/29 11:55:47;;;;;;;1.05;0.35;;;9.70;99.90;;;;;;4992552;28;20390;-79
2021/01/29 11:58:26;;;;;;;0.52;0.30;;;9.80;99.90;;;;;;4994247;28;20083;-77
2021/01/29 12:01:16;;;;;;;0.30;0.25;;;9.70;99.90;;;;;;4998208;28;20165;-75
2021/01/29 12:04:13;;;;;;;0.50;0.20;;;9.60;99.90;;;;;;4988121;28;20078;-76
2021/01/29 12:06:44;;;;;;;1.48;0.20;;;9.50;99.90;;;;;;4986910;28;20095;-76
2021/01/29 12:09:40;;;;;;;0.68;0.20;;;9.50;99.90;;;;;;4989333;28;20079;-77
2021/01/29 12:12:28;;;;;;;0.75;0.32;;;9.40;99.90;;;;;;4985528;28;20133;-76
2021/01/29 12:15:02;;;;;;;1.92;0.30;;;9.30;99.90;;;;;;5006189;28;20204;-77
2021/01/29 12:17:30;;;;;;;1.05;0.68;;;9.30;99.90;;;;;;4988317;28;20075;-76
2021/01/29 12:20:04;;;;;;;0.40;0.20;;;9.40;99.90;;;;;;5004576;28;20095;-76
2021/01/29 12:22:32;;;;;;;0.40;0.20;;;9.40;99.90;;;;;;4992121;28;20542;-77
2021/01/29 12:25:16;;;;;;;2.38;0.75;;;9.40;99.90;;;;;;4999629;28;20110;-77
2021/01/29 12:27:50;;;;;;;2.63;0.30;;;9.60;99.90;;;;;;4999358;28;20122;-79
2021/01/29 12:30:23;;;;;;;;;;;9.60;99.90;;;;;;5004250;28;20073;-77
2021/01/29 12:33:03;;;;;;;2.38;0.52;;;9.60;99.90;;;;;;4995559;28;20052;-77
2021/01/29 12:35:44;;;;;;;0.65;0.10;;;9.60;99.90;;;;;;4991124;28;20100;-77
2021/01/29 12:38:17;;;;;;;2.08;0.35;;;9.70;99.90;;;;;;4995814;28;20165;-76
2021/01/29 12:40:51;;;;;;;0.57;0.28;;;9.70;99.90;;;;;;4991767;28;20118;-76
2021/01/29 12:43:26;;;;;;;1.20;0.47;;;9.60;99.90;;;;;;4996294;28;20168;-77
2021/01/29 12:45:58;;;;;;;0.77;0.20;;;9.50;99.90;;;;;;5008694;28;20098;-77
2021/01/29 12:48:51;;;;;;;1.75;0.47;;;9.50;99.90;;;;;;5003583;28;20086;-76
2021/01/29 12:51:23;;;;;;;5.10;2.15;;;9.50;99.90;;;;;;5002968;28;20534;-76
2021/01/29 12:54:01;;;;;;;2.33;0.57;;;9.50;99.90;;;;;;4994750;28;20109;-76
2021/01/29 12:56:38;;;;;;;0.90;0.40;;;9.60;99.90;;;;;;4993690;28;20079;-78
2021/01/29 12:59:07;;;;;;;0.90;0.40;;;9.60;99.90;;;;;;4991698;28;20067;-77
2021/01/29 13:01:36;;;;;;;2.47;0.90;;;9.60;99.90;;;;;;4997228;28;20063;-79
2021/01/29 13:04:35;;;;;;;1.58;0.70;;;9.70;99.90;;;;;;5008298;28;20079;-79
2021/01/29 13:07:11;;;;;;;5.03;1.10;;;9.80;99.90;;;;;;5002981;28;20125;-81
2021/01/29 13:09:56;;;;;;;2.80;1.20;;;9.70;99.90;;;;;;5013048;28;20106;-80
2021/01/29 13:12:30;;;;;;;1.83;0.68;;;9.70;99.90;;;;;;5015669;28;20085;-77
2021/01/29 13:15:20;;;;;;;1.50;0.40;;;9.70;99.90;;;;;;5011519;28;20087;-78
2021/01/29 13:17:49;;;;;;;0.82;0.30;;;9.70;99.90;;;;;;5012723;28;20391;-78
2021/01/29 13:20:21;;;;;;;1.67;0.57;;;9.70;99.90;;;;;;5007765;28;20082;-80
2021/01/29 13:22:49;;;;;;;3.95;0.60;;;9.70;99.90;;;;;;5012998;28;20097;-78
2021/01/29 13:25:28;;;;;;;2.72;0.47;;;9.60;99.90;;;;;;5006872;28;20458;-80
2021/01/29 13:28:27;;;;;;;0.30;0.20;;;9.60;99.90;;;;;;5009213;28;20176;-80
2021/01/29 13:30:53;;;;;;;0.85;0.40;;;9.50;99.90;;;;;;5016781;28;20650;-79
2021/01/29 13:33:29;;;;;;;1.17;0.25;;;9.30;99.90;;;;;;5004328;28;20198;-79
2021/01/29 13:36:16;;;;;;;1.75;1.05;;;9.20;99.90;;;;;;4999647;28;20192;-78
2021/01/29 13:38:42;;;;;;;1.80;0.60;;;9.10;99.90;;;;;;5015350;28;20082;-78
2021/01/29 13:41:18;;;;;;;1.55;0.43;;;9.10;99.90;;;;;;5004051;28;20159;-77
2021/01/29 13:43:46;;;;;;;0.77;0.30;;;9.10;99.90;;;;;;5013741;28;20074;-78
2021/01/29 13:46:31;;;;;;;0.52;0.30;;;9.10;99.90;;;;;;5010257;28;20177;-77
2021/01/29 13:49:16;;;;;;;0.82;0.15;;;9.10;99.90;;;;;;5015147;28;20078;-78
2021/01/29 13:51:41;;;;;;;0.60;0.20;;;9.10;99.90;;;;;;5010938;28;20088;-78
2021/01/29 13:54:34;;;;;;;0.52;0.10;;;9.00;99.90;;;;;;5000304;28;20383;-79
2021/01/29 13:57:13;;;;;;;3.28;0.47;;;8.90;99.90;;;;;;4998480;28;20093;-79
2021/01/29 13:59:43;;;;;;;1.52;0.43;;;8.90;99.90;;;;;;5003022;28;20082;-79
2021/01/29 14:02:27;;;;;;;3.17;0.38;;;8.90;99.90;;;;;;5005469;28;20087;-78
2021/01/29 14:05:14;;;;;;;1.55;0.25;;;8.80;99.90;;;;;;5001230;28;20115;-78
2021/01/29 14:07:42;;;;;;;0.70;0.30;;;8.70;99.90;;;;;;5004106;28;20181;-77